New York, New York
Current Conditions -  °F | °C
As of 6:55 PM on Saturday 25 Oct 2014 (Local Time) from KJRB Reporting Station
Clear Clear  
Wind Chill: 64°   Ceiling: Unl
Heat Index: 64°   Visibility: 10mi
Dew Point: 46°   Wind: 9mph
Humidity: 52%   Direction: 240°WSW
Pressure: 29.65"   Gusts: NA
Location:  40.71°N, 74.01°W
Report Text: KJRB 252255Z AUTO 24008KT 10SM CLR 18/08 A2965 RMK AO1
Loading
Personal Weather Stations






























Interactive Weather Map New forecast layout! Learn more

10-Day Weather Forecast

Advertisements
Track Severe Weather on mobile